createdAt,value
2022-10-21T00:04:14.185Z,96711.00
2022-10-21T00:09:15.050Z,96732.00
2022-10-21T00:14:15.873Z,96743.00
2022-10-21T00:19:16.680Z,96744.00
2022-10-21T00:24:17.756Z,96741.00
2022-10-21T00:29:18.632Z,96749.00
2022-10-21T00:34:20.599Z,96751.00
2022-10-21T00:39:21.352Z,96747.00
2022-10-21T00:44:22.153Z,96750.00
2022-10-21T00:49:39.852Z,96735.00
2022-10-21T00:54:42.843Z,96729.00
2022-10-21T00:59:49.542Z,96702.00
2022-10-21T01:04:53.365Z,96712.00
2022-10-21T01:09:54.134Z,96697.00
2022-10-21T01:14:59.424Z,96677.00
2022-10-21T01:20:22.654Z,96674.00
2022-10-21T01:25:40.158Z,96658.00
2022-10-21T01:30:48.917Z,96662.00
2022-10-21T01:36:41.500Z,96646.00
2022-10-21T01:41:53.907Z,96624.00
2022-10-21T01:47:17.190Z,96584.00
2022-10-21T01:52:18.212Z,96620.00
2022-10-21T01:57:21.944Z,96624.00
2022-10-21T02:02:29.009Z,96638.00
2022-10-21T02:07:29.804Z,96648.00
2022-10-21T02:12:33.162Z,96643.00
2022-10-21T02:17:37.553Z,96623.00
2022-10-21T02:22:41.653Z,96625.00
2022-10-21T02:27:42.969Z,96627.00
2022-10-21T02:32:55.779Z,96628.00
2022-10-21T02:38:19.668Z,96620.00
2022-10-21T02:43:31.580Z,96612.00
2022-10-21T02:48:33.789Z,96606.00
2022-10-21T02:53:35.288Z,96599.00
2022-10-21T02:58:37.711Z,96594.00
2022-10-21T03:03:38.456Z,96598.00
2022-10-21T03:08:39.384Z,96574.00
2022-10-21T03:13:40.206Z,96574.00
2022-10-21T03:18:40.969Z,96563.00
2022-10-21T03:23:41.699Z,96550.00
2022-10-21T03:28:42.630Z,96557.00
2022-10-21T03:33:43.378Z,96546.00
2022-10-21T03:38:44.138Z,96544.00
2022-10-21T03:43:45.035Z,96548.00
2022-10-21T03:48:45.805Z,96543.00
2022-10-21T03:53:46.535Z,96549.00
2022-10-21T03:58:47.610Z,96557.00
2022-10-21T04:03:48.407Z,96555.00
2022-10-21T04:08:49.444Z,96541.00
2022-10-21T04:13:50.292Z,96537.00
2022-10-21T04:18:51.348Z,96546.00
2022-10-21T04:23:52.111Z,96550.00
2022-10-21T04:28:52.967Z,96536.00
2022-10-21T04:33:53.733Z,96536.00
2022-10-21T04:38:54.577Z,96530.00
2022-10-21T04:43:55.330Z,96534.00
2022-10-21T04:48:56.093Z,96525.00
2022-10-21T04:53:56.965Z,96513.00
2022-10-21T04:58:58.043Z,96506.00
2022-10-21T05:03:58.768Z,96512.00
2022-10-21T05:08:59.644Z,96501.00
2022-10-21T05:14:00.472Z,96491.00
2022-10-21T05:19:01.284Z,96493.00
2022-10-21T05:24:02.231Z,96494.00
2022-10-21T05:29:03.154Z,96487.00
2022-10-21T05:34:03.899Z,96476.00
2022-10-21T05:39:07.957Z,96472.00
2022-10-21T05:44:08.703Z,96467.00
2022-10-21T05:49:09.754Z,96471.00
2022-10-21T05:54:10.545Z,96463.00
2022-10-21T05:59:11.518Z,96468.00
2022-10-21T06:04:12.258Z,96466.00
2022-10-21T06:09:13.187Z,96467.00
2022-10-21T06:14:13.925Z,96470.00
2022-10-21T06:19:14.883Z,96477.00
2022-10-21T06:24:15.717Z,96475.00
2022-10-21T06:29:17.564Z,96475.00
2022-10-21T06:39:19.112Z,96469.00
2022-10-21T06:44:19.864Z,96480.00
2022-10-21T06:49:20.829Z,96484.00
2022-10-21T06:54:21.572Z,96496.00
2022-10-21T06:59:22.759Z,96491.00
2022-10-21T07:04:23.496Z,96498.00
2022-10-21T07:09:24.427Z,96510.00
2022-10-21T07:14:25.756Z,96514.00
2022-10-21T07:19:26.580Z,96523.00
2022-10-21T07:24:27.407Z,96533.00
2022-10-21T07:29:28.293Z,96538.00
2022-10-21T07:34:29.041Z,96534.00
2022-10-21T07:39:30.110Z,96534.00
2022-10-21T07:44:30.841Z,96547.00
2022-10-21T07:49:31.667Z,96547.00
2022-10-21T07:54:32.431Z,96542.00
2022-10-21T07:59:33.377Z,96545.00
2022-10-21T08:04:34.146Z,96538.00
2022-10-21T08:09:35.004Z,96540.00
2022-10-21T08:14:35.745Z,96538.00
2022-10-21T08:19:36.540Z,96534.00
2022-10-21T08:24:39.973Z,96527.00
2022-10-21T08:29:43.291Z,96536.00
2022-10-21T08:34:44.267Z,96533.00
2022-10-21T08:39:46.064Z,96535.00
2022-10-21T08:44:56.094Z,96534.00
2022-10-21T08:50:13.253Z,96540.00
2022-10-21T08:55:23.555Z,96542.00
2022-10-21T09:00:32.248Z,96537.00
2022-10-21T09:06:13.272Z,96548.00
2022-10-21T09:11:40.118Z,96546.00
2022-10-21T09:17:20.542Z,96545.00
2022-10-21T09:22:58.548Z,96545.00
2022-10-21T09:28:08.706Z,96554.00
2022-10-21T09:33:22.663Z,96560.00
2022-10-21T09:38:29.235Z,96567.00
2022-10-21T09:43:30.649Z,96569.00
2022-10-21T09:48:55.051Z,96573.00
2022-10-21T09:54:21.653Z,96560.00
2022-10-21T09:59:26.965Z,96576.00
2022-10-21T10:04:34.704Z,96581.00
2022-10-21T10:09:38.302Z,96573.00
2022-10-21T10:14:44.926Z,96570.00
2022-10-21T10:20:14.303Z,96569.00
2022-10-21T10:25:21.992Z,96557.00
2022-10-21T10:30:26.390Z,96536.00
2022-10-21T10:35:33.087Z,96530.00
2022-10-21T10:40:41.357Z,96541.00
2022-10-21T10:45:55.960Z,96533.00
2022-10-21T10:50:57.557Z,96540.00
2022-10-21T10:57:34.001Z,96562.00
2022-10-21T11:03:04.706Z,96584.00
2022-10-21T11:08:15.071Z,96581.00
2022-10-21T11:13:21.353Z,96578.00
2022-10-21T11:18:37.017Z,96585.00
2022-10-21T11:24:04.427Z,96588.00
2022-10-21T11:29:43.359Z,96589.00
2022-10-21T11:37:32.143Z,96588.00
2022-10-21T11:42:46.123Z,96592.00
2022-10-21T11:48:06.216Z,96596.00
2022-10-21T11:53:55.287Z,96604.00
2022-10-21T11:59:22.999Z,96608.00
2022-10-21T12:04:34.571Z,96604.00
2022-10-21T12:09:49.437Z,96594.00
2022-10-21T12:14:59.441Z,96596.00
2022-10-21T12:20:03.781Z,96599.00
2022-10-21T12:28:01.157Z,96598.00
2022-10-21T12:33:38.167Z,96592.00
2022-10-21T12:38:51.272Z,96587.00
2022-10-21T12:44:47.374Z,96605.00
2022-10-21T12:50:23.919Z,96601.00
2022-10-21T12:55:27.346Z,96595.00
2022-10-21T13:00:52.734Z,96582.00
2022-10-21T13:06:01.400Z,96587.00
2022-10-21T13:11:13.071Z,96586.00
2022-10-21T13:16:47.241Z,96580.00
2022-10-21T13:21:48.630Z,96584.00
2022-10-21T13:26:53.529Z,96587.00
2022-10-21T13:35:31.437Z,96583.00
2022-10-21T13:40:44.330Z,96569.00
2022-10-21T13:45:48.964Z,96561.00
2022-10-21T13:50:52.265Z,96562.00
2022-10-21T13:56:04.898Z,96573.00
2022-10-21T14:01:19.402Z,96571.00
2022-10-21T14:06:35.170Z,96561.00
2022-10-21T14:11:45.238Z,96562.00
2022-10-21T14:17:08.001Z,96571.00
2022-10-21T14:22:18.401Z,96557.00
2022-10-21T14:27:24.846Z,96541.00
2022-10-21T14:32:26.777Z,96557.00
2022-10-21T14:37:34.647Z,96540.00
2022-10-21T14:42:35.435Z,96546.00
2022-10-21T14:47:36.597Z,96556.00
2022-10-21T14:52:42.346Z,96547.00
2022-10-21T14:57:52.837Z,96536.00
2022-10-21T15:02:55.437Z,96540.00
2022-10-21T15:14:44.848Z,96541.00
2022-10-21T15:19:51.937Z,96540.00
2022-10-21T15:24:58.528Z,96535.00
2022-10-21T15:30:12.980Z,96540.00
2022-10-21T15:35:16.483Z,96538.00
2022-10-21T15:40:18.775Z,96549.00
2022-10-21T15:45:22.294Z,96557.00
2022-10-21T15:50:25.803Z,96561.00
2022-10-21T15:55:26.575Z,96549.00
2022-10-21T16:00:27.715Z,96544.00
2022-10-21T16:05:29.153Z,96548.00
2022-10-21T16:10:40.981Z,96552.00
2022-10-21T16:15:41.832Z,96555.00
2022-10-21T16:20:43.161Z,96556.00
2022-10-21T16:25:43.919Z,96567.00
2022-10-21T16:30:44.765Z,96568.00
2022-10-21T16:35:47.902Z,96574.00
2022-10-21T16:40:48.664Z,96576.00
2022-10-21T16:45:49.493Z,96579.00
2022-10-21T16:50:50.364Z,96584.00
2022-10-21T16:55:51.111Z,96584.00
2022-10-21T17:00:52.094Z,96593.00
2022-10-21T17:05:53.218Z,96589.00
2022-10-21T17:10:53.982Z,96593.00
2022-10-21T17:15:54.834Z,96587.00
2022-10-21T17:20:55.841Z,96594.00
2022-10-21T17:25:56.788Z,96598.00
2022-10-21T17:30:57.660Z,96599.00
2022-10-21T17:35:58.410Z,96607.00
2022-10-21T17:40:59.182Z,96610.00
2022-10-21T17:45:59.951Z,96618.00
2022-10-21T17:51:01.574Z,96612.00
2022-10-21T17:56:05.811Z,96618.00
2022-10-21T18:01:08.849Z,96624.00
2022-10-21T18:06:12.235Z,96637.00
2022-10-21T18:11:15.615Z,96626.00
2022-10-21T18:16:21.149Z,96623.00
2022-10-21T18:21:22.761Z,96626.00
2022-10-21T18:26:26.880Z,96630.00
2022-10-21T18:31:30.377Z,96598.00
2022-10-21T18:36:32.038Z,96601.00
2022-10-21T18:41:33.349Z,96603.00
2022-10-21T18:46:36.600Z,96604.00
2022-10-21T18:51:37.493Z,96588.00
2022-10-21T18:56:40.308Z,96600.00
2022-10-21T19:01:41.177Z,96607.00
2022-10-21T19:06:45.270Z,96601.00
2022-10-21T19:11:46.819Z,96599.00
2022-10-21T19:16:48.319Z,96599.00
2022-10-21T19:21:49.117Z,96620.00
2022-10-21T19:26:53.371Z,96644.00
2022-10-21T19:31:55.783Z,96659.00
2022-10-21T19:36:57.793Z,96652.00
2022-10-21T19:41:58.904Z,96654.00
2022-10-21T19:46:59.697Z,96648.00
2022-10-21T19:52:00.488Z,96643.00
2022-10-21T19:57:01.268Z,96632.00
2022-10-21T20:02:02.206Z,96635.00
2022-10-21T20:07:02.987Z,96627.00
2022-10-21T20:12:03.748Z,96630.00
2022-10-21T20:17:04.530Z,96632.00
2022-10-21T20:22:05.993Z,96635.00
2022-10-21T20:27:07.276Z,96641.00
2022-10-21T20:32:08.401Z,96651.00
2022-10-21T20:37:09.204Z,96663.00
2022-10-21T20:42:09.975Z,96674.00
2022-10-21T20:47:10.735Z,96681.00
2022-10-21T20:52:11.487Z,96681.00
2022-10-21T20:57:12.308Z,96723.00
2022-10-21T21:02:13.228Z,96693.00
2022-10-21T21:07:14.027Z,96664.00
2022-10-21T21:12:14.942Z,96649.00
2022-10-21T21:17:15.694Z,96651.00
2022-10-21T21:22:16.662Z,96636.00
2022-10-21T21:27:18.109Z,96627.00
2022-10-21T21:32:19.042Z,96641.00
2022-10-21T21:37:21.404Z,96638.00
2022-10-21T21:42:22.148Z,96621.00
2022-10-21T21:47:22.912Z,96637.00
2022-10-21T21:52:25.082Z,96653.00
2022-10-21T21:57:28.048Z,96650.00
2022-10-21T22:02:29.534Z,96657.00
2022-10-21T22:07:32.189Z,96656.00
2022-10-21T22:12:32.954Z,96657.00
2022-10-21T22:17:33.789Z,96669.00
2022-10-21T22:22:35.289Z,96662.00
2022-10-21T22:27:37.428Z,96668.00
2022-10-21T22:32:38.831Z,96661.00
2022-10-21T22:37:39.816Z,96651.00
2022-10-21T22:42:40.868Z,96637.00
2022-10-21T22:47:42.071Z,96631.00
2022-10-21T22:52:43.439Z,96630.00
2022-10-21T22:57:44.553Z,96632.00
2022-10-21T23:02:45.357Z,96636.00
2022-10-21T23:07:46.431Z,96646.00
2022-10-21T23:12:47.747Z,96650.00
2022-10-21T23:17:48.514Z,96654.00
2022-10-21T23:22:49.462Z,96666.00
2022-10-21T23:27:50.527Z,96673.00
2022-10-21T23:32:51.482Z,96680.00
2022-10-21T23:37:52.231Z,96682.00
2022-10-21T23:42:53.386Z,96692.00
2022-10-21T23:47:54.180Z,96699.00
2022-10-21T23:52:55.502Z,96704.00
2022-10-21T23:57:56.790Z,96710.00
